| time (UTC) | temp C | wind direction | speed KPH | gust KPH | rain 1hr cm | rain 24hr cm | rain mn cm | humidity % | barometer mb |
| 20260906093616 | 23 | 0.0 | 0.0 | 0.00 | 0.15 | 0.00 | 96 | 1008.6 | |
| 20260906092416 | 23 | 0.0 | 0.0 | 0.00 | 0.15 | 0.00 | 96 | 1008.7 | |
| 20260906091216 | 23 | 344 | 0.0 | 1.6 | 0.00 | 0.15 | 0.00 | 96 | 1008.6 |
| 20260906090016 | 23 | 0.0 | 0.0 | 0.00 | 0.15 | 0.00 | 96 | 1008.3 | |
| 20260906084816 | 23 | 0.0 | 0.0 | 0.00 | 0.15 | 0.00 | 96 | 1008.3 | |
| 20260906083636 | 23 | 0.0 | 0.0 | 0.00 | 0.15 | 0.00 | 95 | 1008.3 | |
| 20260906082416 | 23 | 0.0 | 0.0 | 0.00 | 0.15 | 0.00 | 95 | 1008.1 | |
| 20260906081216 | 23 | 0.0 | 0.0 | 0.00 | 0.15 | 0.00 | 95 | 1008.2 | |
| 20260906080016 | 23 | 345 | 0.0 | 1.6 | 0.00 | 0.15 | 0.00 | 95 | 1008.1 |
| 20260906074816 | 23 | 0.0 | 1.6 | 0.00 | 0.15 | 0.00 | 95 | 1008.1 | |
| 20260906073616 | 23 | 0.0 | 0.0 | 0.00 | 0.15 | 0.00 | 95 | 1008.2 | |
| 20260906072436 | 23 | 0.0 | 0.0 | 0.00 | 0.15 | 0.00 | 95 | 1008.3 | |
| 20260906071216 | 23 | 0.0 | 0.0 | 0.00 | 0.15 | 0.00 | 95 | 1008.3 | |
| 20260906070016 | 23 | 345 | 0.0 | 1.6 | 0.00 | 0.15 | 0.00 | 95 | 1008.3 |
| 20260906064815 | 23 | 0.0 | 0.0 | 0.00 | 0.15 | 0.00 | 95 | 1008.4 | |
| 20260906063616 | 23 | 344 | 0.0 | 1.6 | 0.00 | 0.15 | 0.00 | 95 | 1008.3 |
| 20260906062436 | 23 | 345 | 0.0 | 1.6 | 0.00 | 0.15 | 0.00 | 95 | 1008.5 |
| 20260906061216 | 23 | 345 | 0.0 | 1.6 | 0.00 | 0.15 | 0.00 | 95 | 1008.6 |
| 20260906060035 | 23 | 316 | 0.0 | 1.6 | 0.00 | 0.15 | 0.00 | 95 | 1008.7 |
| 20260906054815 | 23 | 316 | 0.0 | 1.6 | 0.00 | 0.15 | 0.00 | 94 | 1008.8 |
| 20260906053616 | 23 | 316 | 0.0 | 1.6 | 0.00 | 0.15 | 0.00 | 94 | 1008.8 |
| 20260906052416 | 23 | 316 | 0.0 | 3.2 | 0.00 | 0.15 | 0.00 | 94 | 1008.9 |
| 20260906051215 | 23 | 292 | 0.0 | 3.2 | 0.00 | 0.15 | 0.00 | 94 | 1008.9 |
| 20260906050036 | 23 | 323 | 0.0 | 3.2 | 0.00 | 0.15 | 0.00 | 95 | 1009.0 |
| 20260906044815 | 23 | 322 | 1.6 | 3.2 | 0.00 | 0.15 | 0.00 | 94 | 1009.0 |
| 20260906043615 | 23 | 22 | 1.6 | 6.4 | 0.05 | 0.15 | 0.00 | 94 | 1008.8 |
| 20260906042415 | 23 | 64 | 0.0 | 1.6 | 0.15 | 0.15 | 0.00 | 93 | 1008.9 |
| 20260906041215 | 23 | 4 | 0.0 | 3.2 | 0.15 | 0.15 | 0.00 | 92 | 1008.9 |
| 20260906040015 | 23 | 302 | 0.0 | 3.2 | 0.15 | 0.15 | 0.15 | 92 | 1009.0 |
| 20260906034816 | 24 | 297 | 1.6 | 6.4 | 0.15 | 0.15 | 0.15 | 90 | 1009.3 |
| 20260906033616 | 25 | 305 | 3.2 | 8.0 | 0.10 | 0.10 | 0.10 | 83 | 1009.3 |
| 20260906032416 | 26 | 130 | 4.8 | 9.7 | 0.00 | 0.00 | 0.00 | 76 | 1009.2 |
| 20260906031216 | 26 | 54 | 0.0 | 3.2 | 0.00 | 0.00 | 0.00 | 77 | 1009.6 |
| 20260906030016 | 26 | 36 | 1.6 | 4.8 | 0.00 | 0.00 | 0.00 | 77 | 1009.4 |
| 20260906024836 | 26 | 14 | 1.6 | 3.2 | 0.00 | 0.00 | 0.00 | 77 | 1009.4 |
| 20260906023616 | 26 | 91 | 1.6 | 6.4 | 0.00 | 0.00 | 0.00 | 77 | 1009.2 |
| 20260906022416 | 26 | 0.0 | 0.0 | 0.00 | 0.00 | 0.00 | 76 | 1009.4 | |
| 20260906021216 | 27 | 35 | 0.0 | 1.6 | 0.00 | 0.00 | 0.00 | 75 | 1009.4 |
| 20260906020016 | 27 | 50 | 1.6 | 3.2 | 0.00 | 0.00 | 0.00 | 74 | 1009.2 |
| 20260906014856 | 27 | 288 | 0.0 | 1.6 | 0.00 | 0.00 | 0.00 | 74 | 1009.2 |
| 20260906013616 | 27 | 0.0 | 0.0 | 0.00 | 0.00 | 0.00 | 73 | 1009.1 | |
| 20260906012416 | 27 | 0.0 | 0.0 | 0.00 | 0.00 | 0.00 | 72 | 1008.9 | |
| 20260906011216 | 27 | 312 | 0.0 | 1.6 | 0.00 | 0.00 | 0.00 | 72 | 1008.8 |
| 20260906010017 | 27 | 323 | 1.6 | 6.4 | 0.00 | 0.00 | 0.00 | 72 | 1008.6 |
| 20260906004816 | 27 | 77 | 8.0 | 11.3 | 0.00 | 0.00 | 0.00 | 71 | 1008.3 |
| 20260906003636 | 28 | 63 | 1.6 | 3.2 | 0.00 | 0.00 | 0.00 | 70 | 1008.5 |
| 20260906002415 | 28 | 298 | 0.0 | 6.4 | 0.00 | 0.00 | 0.00 | 69 | 1008.2 |
| 20260906001236 | 28 | 18 | 0.0 | 4.8 | 0.00 | 0.00 | 0.00 | 65 | 1008.1 |
| 20260906000016 | 28 | 21 | 1.6 | 6.4 | 0.00 | 0.00 | 0.00 | 65 | 1008.2 |
| 20260905234816 | 29 | 289 | 1.6 | 3.2 | 0.00 | 0.00 | 0.00 | 64 | 1008.2 |
| 20260905233656 | 29 | 78 | 1.6 | 6.4 | 0.00 | 0.00 | 0.00 | 63 | 1008.1 |
| 20260905232455 | 30 | 354 | 0.0 | 3.2 | 0.00 | 0.00 | 0.00 | 62 | 1008.0 |
| 20260905231215 | 30 | 18 | 0.0 | 3.2 | 0.00 | 0.00 | 0.00 | 60 | 1008.2 |
| 20260905230015 | 30 | 109 | 1.6 | 6.4 | 0.00 | 0.00 | 0.00 | 60 | 1008.1 |
| 20260905224817 | 30 | 75 | 9.7 | 12.9 | 0.00 | 0.00 | 0.00 | 58 | 1008.1 |
| 20260905223615 | 31 | 71 | 8.0 | 16.1 | 0.00 | 0.00 | 0.00 | 59 | 1008.1 |
| 20260905222415 | 31 | 75 | 11.3 | 22.5 | 0.00 | 0.00 | 0.00 | 57 | 1007.4 |
| 20260905221215 | 33 | 80 | 12.9 | 29.0 | 0.00 | 0.00 | 0.00 | 51 | 1007.6 |
| 20260905220015 | 37 | 321 | 3.2 | 3.2 | 0.00 | 0.00 | 0.00 | 45 | 1007.3 |
| 20260905214815 | 37 | 284 | 0.0 | 3.2 | 0.00 | 0.00 | 0.00 | 42 | 1007.1 |
| 20260905213615 | 37 | 157 | 0.0 | 3.2 | 0.00 | 0.00 | 0.00 | 42 | 1007.1 |
| 20260905212415 | 37 | 172 | 3.2 | 11.3 | 0.00 | 0.00 | 0.00 | 43 | 1007.2 |
| 20260905211215 | 37 | 283 | 1.6 | 4.8 | 0.00 | 0.00 | 0.00 | 44 | 1007.4 |
| 20260905210055 | 37 | 314 | 1.6 | 3.2 | 0.00 | 0.00 | 0.00 | 45 | 1007.6 |
| 20260905204815 | 37 | 84 | 1.6 | 3.2 | 0.00 | 0.00 | 0.00 | 41 | 1007.6 |
| 20260905203615 | 36 | 217 | 1.6 | 8.0 | 0.00 | 0.00 | 0.00 | 42 | 1007.4 |
| 20260905202415 | 36 | 271 | 0.0 | 3.2 | 0.00 | 0.00 | 0.00 | 44 | 1007.5 |
| 20260905201215 | 36 | 62 | 4.8 | 9.7 | 0.00 | 0.00 | 0.00 | 44 | 1007.6 |
| 20260905200015 | 36 | 125 | 1.6 | 4.8 | 0.00 | 0.00 | 0.00 | 45 | 1007.9 |
| 20260905194815 | 36 | 79 | 4.8 | 12.9 | 0.00 | 0.00 | 0.00 | 46 | 1008.0 |
| 20260905193615 | 36 | 87 | 8.0 | 14.5 | 0.00 | 0.00 | 0.00 | 45 | 1008.0 |
| 20260905192415 | 36 | 182 | 1.6 | 6.4 | 0.00 | 0.00 | 0.00 | 47 | 1008.1 |
| 20260905191215 | 36 | 256 | 3.2 | 6.4 | 0.00 | 0.00 | 0.00 | 46 | 1008.3 |
| 20260905190015 | 36 | 30 | 1.6 | 6.4 | 0.00 | 0.00 | 0.00 | 48 | 1008.5 |
| 20260905184835 | 36 | 344 | 3.2 | 8.0 | 0.00 | 0.00 | 0.00 | 48 | 1008.8 |
| 20260905183615 | 35 | 64 | 4.8 | 8.0 | 0.00 | 0.00 | 0.00 | 49 | 1009.0 |
| 20260905182415 | 35 | 83 | 4.8 | 9.7 | 0.00 | 0.00 | 0.00 | 49 | 1009.0 |
| 20260905181235 | 35 | 1 | 3.2 | 11.3 | 0.00 | 0.00 | 0.00 | 50 | 1009.2 |
| 20260905180015 | 35 | 95 | 3.2 | 11.3 | 0.00 | 0.00 | 0.00 | 53 | 1009.3 |
| 20260905174855 | 35 | 181 | 4.8 | 9.7 | 0.00 | 0.00 | 0.00 | 54 | 1009.5 |
| 20260905173615 | 34 | 123 | 3.2 | 8.0 | 0.00 | 0.00 | 0.00 | 55 | 1009.7 |
| 20260905172415 | 33 | 176 | 3.2 | 8.0 | 0.00 | 0.00 | 0.00 | 57 | 1009.7 |
| 20260905171215 | 33 | 90 | 6.4 | 11.3 | 0.00 | 0.00 | 0.00 | 57 | 1009.8 |
| 20260905170035 | 34 | 74 | 4.8 | 12.9 | 0.00 | 0.00 | 0.00 | 56 | 1010.0 |
| 20260905164837 | 34 | 140 | 1.6 | 6.4 | 0.00 | 0.00 | 0.00 | 56 | 1010.2 |
| 20260905163616 | 34 | 189 | 1.6 | 3.2 | 0.00 | 0.00 | 0.00 | 57 | 1010.4 |
| 20260905162417 | 34 | 58 | 1.6 | 6.4 | 0.00 | 0.00 | 0.00 | 56 | 1010.9 |
| 20260905161216 | 33 | 6 | 0.0 | 3.2 | 0.00 | 0.00 | 0.00 | 58 | 1010.9 |
| 20260905160017 | 33 | 44 | 1.6 | 8.0 | 0.00 | 0.00 | 0.00 | 60 | 1011.1 |
| 20260905154816 | 33 | 253 | 3.2 | 6.4 | 0.00 | 0.00 | 0.00 | 61 | 1011.2 |
| 20260905153616 | 32 | 52 | 1.6 | 3.2 | 0.00 | 0.00 | 0.00 | 63 | 1011.3 |
| 20260905152416 | 32 | 42 | 1.6 | 6.4 | 0.00 | 0.00 | 0.00 | 62 | 1011.3 |
| 20260905151216 | 32 | 297 | 1.6 | 6.4 | 0.00 | 0.00 | 0.00 | 66 | 1011.4 |
| 20260905150016 | 31 | 305 | 3.2 | 6.4 | 0.00 | 0.00 | 0.00 | 68 | 1011.5 |
| 20260905144816 | 31 | 290 | 1.6 | 8.0 | 0.00 | 0.00 | 0.00 | 69 | 1011.7 |
| 20260905143636 | 31 | 310 | 1.6 | 6.4 | 0.00 | 0.00 | 0.00 | 72 | 1011.8 |
| 20260905142416 | 30 | 349 | 1.6 | 6.4 | 0.00 | 0.00 | 0.00 | 72 | 1011.8 |
| 20260905141216 | 30 | 306 | 1.6 | 4.8 | 0.00 | 0.00 | 0.00 | 75 | 1011.9 |
| 20260905140016 | 29 | 312 | 1.6 | 8.0 | 0.00 | 0.00 | 0.00 | 77 | 1011.9 |
| 20260905134816 | 28 | 347 | 1.6 | 3.2 | 0.00 | 0.00 | 0.00 | 79 | 1012.0 |
| 20260905133616 | 28 | 269 | 1.6 | 3.2 | 0.00 | 0.00 | 0.00 | 82 | 1011.9 |
| 20260905132416 | 27 | 307 | 1.6 | 4.8 | 0.00 | 0.00 | 0.00 | 85 | 1012.0 |
| 20260905131216 | 26 | 214 | 0.0 | 3.2 | 0.00 | 0.00 | 0.00 | 87 | 1012.1 |
| 20260905130036 | 25 | 175 | 0.0 | 3.2 | 0.00 | 0.00 | 0.00 | 90 | 1012.2 |
| 20260905124856 | 25 | 165 | 1.6 | 3.2 | 0.00 | 0.00 | 0.00 | 92 | 1012.2 |
| 20260905123616 | 23 | 166 | 1.6 | 4.8 | 0.00 | 0.00 | 0.00 | 94 | 1011.9 |
| 20260905122416 | 23 | 170 | 1.6 | 6.4 | 0.00 | 0.00 | 0.00 | 94 | 1011.9 |
| 20260905121216 | 23 | 189 | 1.6 | 3.2 | 0.00 | 0.00 | 0.00 | 94 | 1011.9 |
| 20260905120016 | 23 | 168 | 1.6 | 3.2 | 0.00 | 0.00 | 0.00 | 94 | 1011.8 |
| 20260905114816 | 23 | 0.0 | 0.0 | 0.00 | 0.00 | 0.00 | 96 | 1011.7 | |
| 20260905113636 | 23 | 0.0 | 0.0 | 0.00 | 0.00 | 0.00 | 96 | 1011.7 | |
| 20260905112416 | 23 | 0.0 | 0.0 | 0.00 | 0.00 | 0.00 | 95 | 1011.6 | |
| 20260905111216 | 23 | 162 | 0.0 | 1.6 | 0.00 | 0.00 | 0.00 | 96 | 1011.6 |
| 20260905110016 | 23 | 162 | 0.0 | 3.2 | 0.00 | 0.00 | 0.00 | 95 | 1011.5 |
| 20260905104836 | 23 | 162 | 0.0 | 1.6 | 0.00 | 0.00 | 0.00 | 95 | 1011.3 |
| 20260905103616 | 23 | 162 | 0.0 | 1.6 | 0.00 | 0.00 | 0.00 | 95 | 1011.2 |
| 20260905102416 | 23 | 0.0 | 0.0 | 0.00 | 0.00 | 0.00 | 95 | 1011.2 | |
| 20260905101216 | 23 | 0.0 | 0.0 | 0.00 | 0.00 | 0.00 | 95 | 1011.1 | |
| 20260905100016 | 23 | 0.0 | 0.0 | 0.00 | 0.00 | 0.00 | 95 | 1011.0 | |
| 20260905094816 | 23 | 162 | 0.0 | 1.6 | 0.00 | 0.00 | 0.00 | 95 | 1011.0 |